Time;durP1;ratioP1;P1;durP2;ratioP2;P2;SDS_P1;SDS_P2;PMS_P1;PMS_P2;Temp;Humidity;BMP_temperature;BMP_pressure;BME280_temperature;BME280_humidity;BME280_pressure;Samples;Min_cycle;Max_cycle;Signal;HPM_P1;HPM_P2
2021/10/18 00:02:27;;;;;;;11.50;9.90;;;;;;;13.16;54.04;100031.81;5034495;23;20245;-79
2021/10/18 00:04:58;;;;;;;11.17;9.97;;;;;;;13.04;54.28;100033.59;5087883;23;20232;-79
2021/10/18 00:07:30;;;;;;;11.87;9.20;;;;;;;13.11;54.33;100043.25;5069174;23;20237;-79
2021/10/18 00:10:20;;;;;;;10.07;9.07;;;;;;;13.05;54.21;100038.75;5082667;23;20252;-79
2021/10/18 00:12:52;;;;;;;14.23;10.03;;;;;;;12.99;54.35;100047.72;5083422;23;20229;-79
2021/10/18 00:15:37;;;;;;;11.77;10.27;;;;;;;12.89;54.59;100049.28;5076692;28;20241;-79
2021/10/18 00:18:08;;;;;;;10.50;9.40;;;;;;;12.73;53.62;100035.41;5083018;23;20150;-79
2021/10/18 00:20:39;;;;;;;11.93;9.80;;;;;;;12.69;54.27;100058.38;5060411;28;20242;-79
2021/10/18 00:23:11;;;;;;;11.77;9.17;;;;;;;12.68;54.59;100055.94;5065069;23;20301;-79
2021/10/18 00:26:17;;;;;;;10.33;9.37;;;;;;;12.56;54.45;100050.47;5062129;23;20241;-81
2021/10/18 00:28:55;;;;;;;10.83;9.37;;;;;;;12.41;54.00;100028.50;5100032;23;20233;-80
2021/10/18 00:31:29;;;;;;;10.67;9.00;;;;;;;12.45;54.26;100048.53;5078141;28;20164;-81
2021/10/18 00:33:56;;;;;;;10.00;9.00;;;;;;;12.42;54.38;100062.38;5078141;28;20285;-81
2021/10/18 00:37:10;;;;;;;11.70;9.47;;;;;;;12.36;54.44;100053.34;5099329;23;20256;-80
2021/10/18 00:39:37;;;;;;;11.27;10.07;;;;;;;12.27;54.16;100049.28;5051662;23;20229;-81
2021/10/18 00:42:10;;;;;;;14.73;10.93;;;;;;;12.17;54.25;100048.16;5039742;23;20233;-81
2021/10/18 00:44:49;;;;;;;14.20;11.50;;;;;;;12.08;54.47;100050.31;5072058;23;20229;-80
2021/10/18 00:47:37;;;;;;;12.40;11.07;;;;;;;12.16;54.71;100065.31;5016528;28;20262;-81
2021/10/18 00:50:45;;;;;;;11.80;9.87;;;;;;;12.07;54.01;100064.75;5060321;23;20226;-81
2021/10/18 00:53:21;;;;;;;12.00;10.67;;;;;;;12.07;53.92;100063.94;5035275;23;20233;-81
2021/10/18 00:56:05;;;;;;;12.33;10.23;;;;;;;12.04;54.17;100061.69;5073280;22;20217;31
2021/10/18 00:58:40;;;;;;;11.37;9.73;;;;;;;12.00;54.16;100060.47;5009306;23;20586;-80
2021/10/18 01:01:47;;;;;;;10.97;9.67;;;;;;;12.00;53.65;100063.97;5048604;23;20624;-80
2021/10/18 01:04:45;;;;;;;10.83;9.43;;;;;;;11.80;53.73;100044.53;5090049;23;20232;-80
2021/10/18 01:07:37;;;;;;;10.40;9.40;;;;;;;11.84;54.30;100065.34;5008710;23;20226;-80
2021/10/18 01:10:11;;;;;;;11.37;9.50;;;;;;;11.72;54.34;100042.03;5032340;23;20261;-80
2021/10/18 01:13:04;;;;;;;11.97;9.40;;;;;;;11.82;54.19;100067.41;5045740;23;20224;-80
2021/10/18 01:16:01;;;;;;;12.30;9.70;;;;;;;11.83;54.03;100057.50;5036942;28;20217;-80
2021/10/18 01:18:32;;;;;;;10.60;9.50;;;;;;;11.72;54.33;100063.53;5133962;23;20225;-80
2021/10/18 01:21:32;;;;;;;12.07;9.53;;;;;;;11.69;53.95;100051.38;5068653;23;20205;-81
2021/10/18 01:24:55;;;;;;;10.17;9.03;;;;;;;11.75;54.22;100057.78;4984366;28;20254;-80
2021/10/18 01:27:35;;;;;;;10.17;8.73;;;;;;;11.71;54.03;100059.22;4997490;28;20238;-81
2021/10/18 01:30:34;;;;;;;10.67;9.37;;;;;;;11.74;54.32;100059.63;4997700;28;20255;-80
2021/10/18 01:33:04;;;;;;;11.63;9.53;;;;;;;11.70;53.63;100055.72;5068345;23;20303;-79
2021/10/18 01:36:25;;;;;;;10.40;9.20;;;;;;;11.65;54.07;100062.75;5085720;23;20245;-80
2021/10/18 01:38:56;;;;;;;10.03;9.00;;;;;;;11.65;54.46;100054.69;5061611;23;20235;-81
2021/10/18 01:41:26;;;;;;;11.50;9.57;;;;;;;11.61;54.64;100062.38;5023579;28;20198;-80
2021/10/18 01:43:56;;;;;;;10.87;9.67;;;;;;;11.58;54.12;100064.63;5075016;23;20242;-80
2021/10/18 01:46:27;;;;;;;10.37;9.27;;;;;;;11.54;54.20;100058.06;5114233;23;20241;-80
2021/10/18 01:49:13;;;;;;;11.47;9.70;;;;;;;11.62;53.78;100071.25;5079099;23;20233;-81
2021/10/18 01:51:46;;;;;;;9.93;8.93;;;;;;;11.56;54.07;100070.25;5081004;23;20212;-80
2021/10/18 01:54:15;;;;;;;10.10;8.93;;;;;;;11.54;54.18;100064.25;5040324;23;20214;-80
2021/10/18 01:56:49;;;;;;;10.37;8.37;;;;;;;11.59;53.94;100069.81;5055706;23;20244;-80
2021/10/18 01:59:58;;;;;;;9.77;8.67;;;;;;;11.48;53.93;100068.63;5222805;23;20236;-80
2021/10/18 02:02:25;;;;;;;10.23;8.57;;;;;;;11.51;53.96;100064.69;5044024;23;20654;-80
2021/10/18 02:05:23;;;;;;;11.77;9.80;;;;;;;11.49;54.04;100067.59;5048631;23;20245;-80
2021/10/18 02:07:50;;;;;;;10.33;9.23;;;;;;;11.30;54.15;100033.63;5061120;23;20289;-79
2021/10/18 02:10:19;;;;;;;10.10;8.90;;;;;;;11.45;54.76;100061.00;5051165;23;20234;-80
2021/10/18 02:13:20;;;;;;;11.43;9.50;;;;;;;11.52;54.42;100065.53;5034145;23;20594;-79
2021/10/18 02:16:07;;;;;;;10.43;9.37;;;;;;;11.48;54.37;100059.75;5065677;23;20225;-79
2021/10/18 02:19:08;;;;;;;9.77;8.87;;;;;;;11.55;54.62;100065.09;5068908;23;20231;-80
2021/10/18 02:22:02;;;;;;;9.93;8.93;;;;;;;11.55;54.42;100062.41;5070381;23;20218;-80
2021/10/18 02:24:33;;;;;;;10.93;9.47;;;;;;;11.60;54.33;100068.78;5209761;23;20234;-80
2021/10/18 02:30:32;;;;;;;10.33;8.83;;;;;;;11.59;53.80;100053.69;5082325;23;20256;-80
2021/10/18 02:33:25;;;;;;;10.07;8.57;;;;;;;11.61;54.55;100050.81;5115767;23;20290;-80
2021/10/18 02:35:57;;;;;;;10.03;9.03;;;;;;;11.64;54.76;100064.63;4987744;28;20175;-81
2021/10/18 02:39:05;;;;;;;10.30;8.90;;;;;;;11.51;54.05;100064.69;5037141;28;20164;-80
2021/10/18 02:41:35;;;;;;;10.63;8.90;;;;;;;11.54;54.43;100055.38;5036231;28;20205;-80
2021/10/18 02:44:13;;;;;;;9.20;8.30;;;;;;;11.54;54.55;100055.38;5004302;28;20238;-80
2021/10/18 02:46:40;;;;;;;10.27;8.77;;;;;;;11.59;54.76;100061.75;5015186;28;20234;-79
2021/10/18 02:49:21;;;;;;;9.93;8.50;;;;;;;11.46;54.40;100054.59;5062255;23;20212;-80
2021/10/18 02:52:10;;;;;;;11.67;9.30;;;;;;;11.57;54.91;100054.97;5022729;23;20225;-80
2021/10/18 02:55:29;;;;;;;10.77;8.90;;;;;;;11.62;54.73;100072.03;5042533;23;20225;-79
2021/10/18 02:58:32;;;;;;;10.73;8.70;;;;;;;11.64;54.63;100071.84;5024498;23;20254;-80
2021/10/18 03:01:07;;;;;;;11.37;8.93;;;;;;;11.59;54.30;100061.75;5033524;23;20241;-80
2021/10/18 03:04:00;;;;;;;9.53;8.50;;;;;;;11.64;54.81;100069.16;5041611;23;20238;-80
2021/10/18 03:06:47;;;;;;;10.37;8.87;;;;;;;11.62;54.40;100066.69;4994958;23;20228;-80
2021/10/18 03:09:38;;;;;;;8.90;7.87;;;;;;;11.67;53.97;100074.91;5041753;23;20229;-80
2021/10/18 03:12:14;;;;;;;11.70;8.80;;;;;;;11.71;54.53;100076.13;5031894;23;20245;-80
2021/10/18 03:14:59;;;;;;;10.57;8.67;;;;;;;11.69;54.06;100074.69;5149388;23;20226;-80
2021/10/18 03:17:35;;;;;;;10.07;9.07;;;;;;;11.78;54.35;100073.44;5013594;23;20257;-80
2021/10/18 03:20:12;;;;;;;12.43;8.87;;;;;;;11.70;54.44;100093.28;5025192;23;20194;-80
2021/10/18 03:23:45;;;;;;;9.27;8.37;;;;;;;11.72;53.23;100093.03;5030923;23;20203;-80
2021/10/18 03:26:27;;;;;;;10.30;9.10;;;;;;;11.74;54.91;100094.53;5150488;23;20229;-80
2021/10/18 03:29:15;;;;;;;9.77;8.60;;;;;;;11.82;54.29;100090.75;5112772;23;20245;-79
2021/10/18 03:32:29;;;;;;;11.13;8.37;;;;;;;11.80;54.16;100079.44;5078827;23;20233;-79
2021/10/18 03:35:09;;;;;;;9.57;8.40;;;;;;;11.93;54.00;100092.75;5267787;23;20251;-80
2021/10/18 03:38:00;;;;;;;9.30;8.30;;;;;;;11.88;54.45;100093.41;5061515;23;20226;-80
2021/10/18 03:40:28;;;;;;;11.87;8.87;;;;;;;11.97;54.08;100101.19;5161783;23;20232;-80
2021/10/18 03:43:19;;;;;;;9.53;8.23;;;;;;;11.97;54.60;100095.81;5060888;23;20248;-80
2021/10/18 03:45:58;;;;;;;9.40;8.30;;;;;;;11.94;54.12;100090.91;5083622;23;20232;-80
2021/10/18 03:48:30;;;;;;;9.57;8.27;;;;;;;12.11;54.41;100110.81;5072971;23;20261;-79
2021/10/18 03:50:57;;;;;;;10.47;8.00;;;;;;;12.18;54.27;100128.50;5039710;28;20254;-80
2021/10/18 03:53:27;;;;;;;8.73;7.83;;;;;;;12.26;54.41;100117.50;5046456;23;20248;-80
2021/10/18 03:55:55;;;;;;;9.47;8.57;;;;;;;12.23;54.30;100119.78;5045835;23;20214;-80
2021/10/18 03:58:24;;;;;;;9.63;8.10;;;;;;;12.26;54.04;100114.81;5046363;23;20230;-80
2021/10/18 04:01:28;;;;;;;11.13;8.03;;;;;;;12.30;53.54;100115.22;5038503;28;20571;-79
2021/10/18 04:04:35;;;;;;;10.20;8.40;;;;;;;12.40;54.20;100112.84;5065576;23;20232;-80
2021/10/18 04:07:03;;;;;;;8.80;7.90;;;;;;;12.43;54.17;100103.53;5063422;23;20261;-80
2021/10/18 04:09:46;;;;;;;8.30;7.53;;;;;;;12.46;54.35;100111.16;5036927;23;20220;-80
2021/10/18 04:12:39;;;;;;;9.13;7.93;;;;;;;12.33;54.59;100094.09;5084032;23;20248;-80
2021/10/18 04:15:14;;;;;;;9.37;7.77;;;;;;;12.51;54.42;100113.97;5087078;23;20234;-80
2021/10/18 04:18:06;;;;;;;10.10;7.77;;;;;;;12.55;54.41;100109.84;5058280;23;20233;-81
2021/10/18 04:20:55;;;;;;;8.50;7.70;;;;;;;12.62;54.59;100116.78;5038883;23;20265;-80
2021/10/18 04:24:04;;;;;;;10.10;7.80;;;;;;;12.64;54.04;100125.47;5013712;23;20224;-80
2021/10/18 04:26:48;;;;;;;9.80;7.60;;;;;;;12.69;54.06;100128.28;5149556;23;20228;-80
2021/10/18 04:29:19;;;;;;;8.70;7.80;;;;;;;12.61;54.44;100125.88;5060375;23;20238;-80
2021/10/18 04:31:50;;;;;;;10.50;8.13;;;;;;;12.64;54.20;100127.31;5069670;23;20230;-80
2021/10/18 04:34:35;;;;;;;8.00;7.20;;;;;;;12.55;54.49;100120.59;5046678;23;20298;-80
2021/10/18 04:37:22;;;;;;;9.30;7.77;;;;;;;12.75;54.29;100150.78;4991898;28;20234;-80
2021/10/18 04:39:49;;;;;;;8.40;7.60;;;;;;;12.80;54.28;100148.25;5026829;23;20299;-79
2021/10/18 04:42:16;;;;;;;8.67;7.50;;;;;;;12.65;53.87;100134.31;5041350;23;20230;-80
2021/10/18 04:44:43;;;;;;;9.17;7.67;;;;;;;12.67;54.41;100145.69;5030129;23;20230;-80
2021/10/18 04:47:21;;;;;;;8.20;7.43;;;;;;;12.71;54.29;100145.03;5006164;28;20210;-80
2021/10/18 04:49:49;;;;;;;9.27;7.50;;;;;;;12.68;54.31;100145.47;5025745;23;20215;-79
2021/10/18 04:52:44;;;;;;;10.57;7.77;;;;;;;12.72;53.95;100159.28;5051220;23;20229;-79
2021/10/18 04:55:36;;;;;;;10.37;7.53;;;;;;;12.73;53.85;100158.25;5069342;23;20226;-80
2021/10/18 04:58:05;;;;;;;11.93;7.67;;;;;;;12.71;53.76;100146.91;5021505;28;20236;-80
2021/10/18 05:00:40;;;;;;;10.33;8.53;;;;;;;12.74;54.24;100151.81;5040096;23;20238;-80
2021/10/18 05:03:29;;;;;;;11.23;9.13;;;;;;;12.68;53.74;100150.84;5037561;28;20513;-80
2021/10/18 05:05:58;;;;;;;9.10;8.20;;;;;;;12.63;53.70;100157.94;5095055;23;20233;-80
2021/10/18 05:08:33;;;;;;;10.10;8.70;;;;;;;12.45;53.69;100139.91;5044472;23;20198;-80
2021/10/18 05:11:29;;;;;;;11.17;9.07;;;;;;;12.60;54.01;100159.19;5055281;23;20282;-80
2021/10/18 05:14:33;;;;;;;11.03;9.97;;;;;;;12.61;54.37;100171.59;5059569;23;20540;-80
2021/10/18 05:17:03;;;;;;;12.30;9.97;;;;;;;12.59;53.94;100167.47;5089059;23;20244;-80
2021/10/18 05:19:50;;;;;;;9.63;8.73;;;;;;;12.52;53.82;100164.84;5080948;23;20224;-79
2021/10/18 05:22:50;;;;;;;10.27;9.17;;;;;;;12.62;54.44;100183.16;5029433;23;20253;-80
2021/10/18 05:25:47;;;;;;;9.63;8.00;;;;;;;12.64;54.02;100186.47;5019920;28;20230;-80
2021/10/18 05:28:14;;;;;;;9.90;8.67;;;;;;;12.60;53.92;100190.59;5003643;23;20230;-81
2021/10/18 05:31:09;;;;;;;8.63;7.83;;;;;;;12.61;53.50;100193.09;5003189;28;20219;-80
2021/10/18 05:33:55;;;;;;;8.57;7.67;;;;;;;12.54;54.10;100188.81;5083150;23;20247;-80
2021/10/18 05:36:27;;;;;;;10.20;8.37;;;;;;;12.62;54.26;100202.81;5017946;23;20225;-80
2021/10/18 05:38:57;;;;;;;8.83;7.93;;;;;;;12.52;53.33;100207.00;5059447;23;20261;-79
2021/10/18 05:41:26;;;;;;;8.30;7.47;;;;;;;12.51;54.62;100206.19;5098490;23;20319;-81
2021/10/18 05:44:04;;;;;;;8.80;8.00;;;;;;;12.45;53.86;100199.00;5062416;23;20288;-80
2021/10/18 05:46:44;;;;;;;8.67;7.20;;;;;;;12.44;53.96;100200.06;5145863;23;20242;-80
2021/10/18 05:49:13;;;;;;;9.10;8.17;;;;;;;12.38;53.75;100203.59;5012812;23;20229;-80
2021/10/18 05:51:47;;;;;;;9.27;7.60;;;;;;;12.54;53.35;100232.66;5079792;23;20285;-80
2021/10/18 05:54:15;;;;;;;9.17;7.53;;;;;;;12.49;53.92;100229.78;5061877;23;20224;-80
2021/10/18 05:57:25;;;;;;;8.53;7.50;;;;;;;12.44;53.07;100223.41;5071645;23;20240;-80
2021/10/18 06:02:58;;;;;;;12.33;9.50;;;;;;;12.58;53.36;100233.03;5070620;23;20215;-80
2021/10/18 06:06:35;;;;;;;10.60;8.60;;;;;;;12.70;53.66;100240.16;5241418;23;20233;-80
2021/10/18 06:09:51;;;;;;;13.43;9.00;;;;;;;12.82;52.51;100239.47;5212867;23;20267;-80
2021/10/18 06:12:59;;;;;;;9.33;8.03;;;;;;;13.10;53.12;100253.28;5064168;23;20272;-80
2021/10/18 06:15:39;;;;;;;8.57;7.13;;;;;;;13.12;52.55;100245.84;5059958;23;20240;-80
2021/10/18 06:18:34;;;;;;;8.50;7.47;;;;;;;13.53;52.50;100272.97;5031079;23;21337;-80
2021/10/18 06:22:04;;;;;;;11.03;7.53;;;;;;;13.77;52.05;100278.50;5052873;23;20256;-80
2021/10/18 06:25:12;;;;;;;9.73;7.60;;;;;;;13.98;51.62;100272.66;5033964;28;20240;-79
2021/10/18 06:28:08;;;;;;;9.97;7.77;;;;;;;14.17;51.22;100263.53;5130353;23;20206;-79
2021/10/18 06:31:17;;;;;;;8.80;7.20;;;;;;;14.39;50.99;100264.69;5052658;23;20240;31
2021/10/18 06:34:22;;;;;;;9.50;7.10;;;;;;;14.65;50.58;100278.84;5004749;23;20229;-80
2021/10/18 06:37:31;;;;;;;7.80;7.00;;;;;;;14.88;50.58;100289.69;5241062;23;20259;-79
2021/10/18 06:41:00;;;;;;;9.93;6.70;;;;;;;14.96;49.92;100295.56;5005855;23;20242;-79
2021/10/18 06:43:28;;;;;;;9.27;6.87;;;;;;;15.19;49.63;100297.47;5020466;23;20234;-79
2021/10/18 06:46:16;;;;;;;9.80;7.23;;;;;;;15.32;49.09;100301.81;5016534;23;20228;-79
2021/10/18 06:48:45;;;;;;;11.17;7.33;;;;;;;15.26;49.33;100295.47;4994458;28;20207;-80
2021/10/18 06:51:20;;;;;;;11.97;9.30;;;;;;;15.39;49.33;100306.06;5002646;23;20198;-79
2021/10/18 06:53:54;;;;;;;10.33;7.57;;;;;;;15.57;49.19;100307.84;5037501;23;20300;-79
2021/10/18 06:56:48;;;;;;;8.93;6.43;;;;;;;15.46;48.84;100286.22;5030905;23;20229;-80
2021/10/18 06:59:40;;;;;;;8.97;7.30;;;;;;;15.75;48.66;100307.72;5089088;23;20230;-79
2021/10/18 07:02:26;;;;;;;11.17;6.97;;;;;;;15.76;48.61;100298.56;5023685;28;20218;-79
2021/10/18 07:04:55;;;;;;;8.87;6.87;;;;;;;15.88;48.70;100314.75;5037574;28;20246;-79
2021/10/18 07:07:56;;;;;;;8.53;6.40;;;;;;;15.96;48.01;100322.47;5059218;23;20219;-79
2021/10/18 07:10:37;;;;;;;9.87;6.33;;;;;;;16.01;48.51;100330.69;5043028;23;20225;-80
2021/10/18 07:13:29;;;;;;;9.07;6.90;;;;;;;16.30;48.11;100342.38;5065090;23;20252;-80
2021/10/18 07:16:13;;;;;;;10.30;6.50;;;;;;;16.53;47.78;100336.06;5045899;23;20223;-80
2021/10/18 07:18:45;;;;;;;9.73;6.20;;;;;;;16.64;47.11;100343.34;5033976;28;20223;-80
2021/10/18 07:21:57;;;;;;;7.57;6.40;;;;;;;16.77;45.58;100342.22;5035885;28;20198;-79
2021/10/18 07:24:31;;;;;;;8.17;7.00;;;;;;;16.94;46.75;100338.47;5027193;28;20198;-79
2021/10/18 07:27:25;;;;;;;9.73;7.17;;;;;;;17.33;45.91;100346.72;5071380;23;20240;-79
2021/10/18 07:30:07;;;;;;;7.87;6.53;;;;;;;17.59;45.17;100341.47;5057727;23;20233;-79
2021/10/18 07:32:48;;;;;;;7.00;6.30;;;;;;;17.87;45.29;100348.66;5067514;23;20225;-79
2021/10/18 07:36:10;;;;;;;8.37;6.53;;;;;;;18.16;44.21;100354.75;5076983;23;20217;-79
2021/10/18 07:39:12;;;;;;;7.80;6.00;;;;;;;17.99;44.65;100343.13;5074937;28;20190;-79
2021/10/18 07:42:16;;;;;;;6.70;6.00;;;;;;;18.51;43.46;100353.53;5093178;22;20220;-79
2021/10/18 07:44:58;;;;;;;7.23;6.17;;;;;;;18.80;43.22;100349.56;5075025;22;20221;-78
2021/10/18 07:47:36;;;;;;;6.63;5.93;;;;;;;18.93;42.78;100341.00;5102880;22;20284;-79
2021/10/18 07:50:28;;;;;;;8.37;6.40;;;;;;;19.16;42.19;100361.56;5089726;22;20263;-79
2021/10/18 07:52:56;;;;;;;7.60;6.07;;;;;;;18.99;42.65;100345.38;5086110;23;20249;-78
2021/10/18 07:55:29;;;;;;;6.43;5.40;;;;;;;19.13;42.20;100354.75;5092607;28;20296;-79
2021/10/18 07:57:59;;;;;;;9.87;5.63;;;;;;;19.29;42.28;100356.53;5063068;28;20223;-79
2021/10/18 08:00:38;;;;;;;9.93;7.07;;;;;;;19.22;42.16;100366.78;5099743;23;20235;-78
2021/10/18 08:03:06;;;;;;;6.87;6.10;;;;;;;19.15;42.40;100360.75;5100145;23;20787;-78
2021/10/18 08:05:56;;;;;;;6.20;5.70;;;;;;;19.40;41.71;100365.59;5115908;22;20291;-78
2021/10/18 08:08:30;;;;;;;7.87;5.97;;;;;;;19.50;41.45;100360.28;5083893;23;20223;-79
2021/10/18 08:11:00;;;;;;;7.47;5.73;;;;;;;19.89;40.99;100358.06;5106473;23;20240;-79
2021/10/18 08:13:54;;;;;;;7.10;5.90;;;;;;;20.30;40.44;100355.53;5088718;23;20233;31
2021/10/18 08:16:21;;;;;;;7.83;5.80;;;;;;;20.71;39.55;100360.09;5113832;23;20272;-79
2021/10/18 08:18:59;;;;;;;6.23;5.63;;;;;;;20.94;38.65;100347.88;5031701;23;20256;-79
2021/10/18 08:21:29;;;;;;;6.77;5.97;;;;;;;21.12;38.07;100344.63;5079537;22;20252;-79
2021/10/18 08:23:57;;;;;;;8.13;5.63;;;;;;;21.26;37.66;100351.22;5080077;23;20232;-80
2021/10/18 08:26:28;;;;;;;6.13;5.33;;;;;;;21.33;37.85;100351.75;5075168;28;20189;-79
2021/10/18 08:29:15;;;;;;;5.60;5.00;;;;;;;21.15;38.06;100349.56;5058080;23;20225;-79
2021/10/18 08:31:44;;;;;;;8.00;5.20;;;;;;;21.22;37.63;100352.03;5050382;28;20651;-84
2021/10/18 08:34:11;;;;;;;7.33;5.37;;;;;;;21.25;37.08;100352.28;5043135;28;20312;-82
2021/10/18 08:36:40;;;;;;;6.97;4.67;;;;;;;21.25;36.50;100359.66;5027830;28;20230;-84
2021/10/18 08:41:54;;;;;;;6.23;5.07;;;;;;;21.16;36.23;100364.00;5057847;28;20218;-88
2021/10/18 08:44:21;;;;;;;7.60;5.30;;;;;;;21.22;36.40;100374.66;5039040;28;20265;-85
2021/10/18 08:46:50;;;;;;;6.90;5.53;;;;;;;21.13;36.88;100389.91;5022754;28;20245;-88
2021/10/18 08:49:18;;;;;;;4.97;4.23;;;;;;;20.60;36.55;100378.31;5038970;28;20275;-87
2021/10/18 08:51:45;;;;;;;5.37;4.43;;;;;;;20.55;35.43;100378.28;5022798;28;20532;-88
2021/10/18 08:54:12;;;;;;;5.07;3.80;;;;;;;20.36;35.42;100368.94;5038750;28;20225;-88
2021/10/18 08:56:55;;;;;;;5.93;3.80;;;;;;;20.23;35.75;100388.47;5040875;28;20229;-86
2021/10/18 08:59:28;;;;;;;7.40;4.07;;;;;;;20.05;36.01;100384.28;5006454;28;20229;-85
2021/10/18 09:01:57;;;;;;;5.33;3.50;;;;;;;20.11;36.48;100387.84;5037903;28;20287;-86
2021/10/18 09:04:29;;;;;;;4.63;3.60;;;;;;;19.95;36.61;100395.09;5042318;28;20221;-83
2021/10/18 09:06:59;;;;;;;5.33;3.60;;;;;;;19.89;36.80;100377.09;5049296;28;20224;-79
2021/10/18 09:09:32;;;;;;;4.30;3.77;;;;;;;20.07;36.01;100384.81;5050849;28;20520;-81
2021/10/18 09:12:06;;;;;;;6.37;3.43;;;;;;;19.94;35.25;100389.91;5045366;28;20237;-83
2021/10/18 09:14:42;;;;;;;4.50;3.40;;;;;;;19.92;34.97;100390.19;5036981;28;20226;-79
2021/10/18 09:17:44;;;;;;;5.30;3.97;;;;;;;19.88;36.06;100397.22;5066864;28;20235;-80
2021/10/18 09:20:38;;;;;;;4.00;3.60;;;;;;;20.23;34.88;100392.00;5068890;28;20271;-81
2021/10/18 09:23:17;;;;;;;5.00;3.80;;;;;;;20.06;34.80;100399.50;5062044;28;20256;-81
2021/10/18 09:25:57;;;;;;;6.90;3.80;;;;;;;20.03;35.22;100383.72;5064260;28;20228;-82
2021/10/18 09:28:29;;;;;;;6.27;3.80;;;;;;;19.85;35.49;100391.50;5048304;23;20229;-79
2021/10/18 09:31:00;;;;;;;5.33;3.90;;;;;;;19.86;34.80;100395.84;5073932;28;20203;-79
2021/10/18 09:33:41;;;;;;;6.53;4.50;;;;;;;19.74;35.15;100396.03;5092383;28;20232;-79
2021/10/18 09:36:25;;;;;;;6.73;4.27;;;;;;;19.71;35.49;100393.84;5061383;28;20181;-79
2021/10/18 09:39:29;;;;;;;5.23;4.30;;;;;;;19.95;35.69;100399.72;5067895;28;20220;-79
2021/10/18 09:42:15;;;;;;;6.47;3.90;;;;;;;19.90;34.77;100402.41;5271230;22;20275;-79
2021/10/18 10:54:40;;;;;;;4.83;2.30;;;;;;;23.44;27.86;100377.66;5059425;28;20226;-84
2021/10/18 10:57:12;;;;;;;4.03;2.87;;;;;;;21.91;29.60;100369.41;5057489;28;20643;-90
2021/10/18 10:59:53;;;;;;;3.57;2.70;;;;;;;21.88;30.65;100360.97;5041414;28;20644;-86
2021/10/18 11:02:32;;;;;;;4.10;2.67;;;;;;;21.91;30.01;100369.41;5056962;28;20318;-88
2021/10/18 11:04:59;;;;;;;3.27;2.40;;;;;;;22.54;29.40;100371.66;5083253;28;20217;-88
2021/10/18 11:07:38;;;;;;;3.43;2.40;;;;;;;22.83;28.08;100367.16;5076583;28;20319;-90
2021/10/18 11:10:06;;;;;;;3.77;2.53;;;;;;;22.87;27.63;100357.31;5030259;28;20238;-84
2021/10/18 11:12:35;;;;;;;3.50;2.30;;;;;;;21.37;30.16;100358.28;5056669;28;20234;-87
2021/10/18 11:15:21;;;;;;;3.47;2.57;;;;;;;22.48;29.83;100361.88;5072138;28;20292;-80
2021/10/18 11:17:52;;;;;;;3.03;2.40;;;;;;;22.01;30.15;100354.13;5103607;22;20320;-81
2021/10/18 11:20:24;;;;;;;6.00;2.63;;;;;;;22.28;30.10;100352.69;5072816;23;20295;-86
2021/10/18 11:23:08;;;;;;;5.20;2.63;;;;;;;22.12;28.67;100356.53;5067033;28;20225;-86
2021/10/18 11:25:39;;;;;;;4.70;2.40;;;;;;;22.65;27.78;100354.94;5076767;28;20230;-88
2021/10/18 11:28:08;;;;;;;4.73;2.40;;;;;;;22.57;28.40;100362.91;5073807;28;20280;-88
2021/10/18 11:30:37;;;;;;;5.87;2.20;;;;;;;22.98;28.10;100358.06;5040242;28;20689;-80
2021/10/18 11:33:13;;;;;;;3.93;2.60;;;;;;;22.07;29.05;100334.72;5040856;28;20242;-89
2021/10/18 11:35:41;;;;;;;3.87;2.70;;;;;;;22.86;28.75;100347.50;5031783;28;20258;-86
2021/10/18 11:38:10;;;;;;;4.90;3.67;;;;;;;22.70;29.81;100351.41;5036532;28;20246;-84
2021/10/18 11:40:44;;;;;;;4.10;3.67;;;;;;;22.68;30.09;100340.72;5020432;28;20249;-86
2021/10/18 11:43:23;;;;;;;4.63;3.53;;;;;;;22.37;30.46;100340.06;5020998;28;20230;-87
2021/10/18 11:45:53;;;;;;;5.53;3.47;;;;;;;22.02;30.66;100331.22;5060371;28;20225;-88
2021/10/18 11:48:22;;;;;;;5.30;3.80;;;;;;;21.73;31.44;100340.00;5060188;28;20227;-90
2021/10/18 11:50:54;;;;;;;5.13;3.43;;;;;;;21.49;31.14;100328.03;5044038;28;20231;-89
2021/10/18 11:53:26;;;;;;;5.37;3.90;;;;;;;22.31;30.19;100343.09;5060499;28;20236;-88
2021/10/18 11:55:58;;;;;;;6.17;4.40;;;;;;;22.76;29.51;100333.91;5043927;28;20262;-81
2021/10/18 11:58:26;;;;;;;4.73;3.43;;;;;;;21.94;30.67;100327.94;5060620;28;20278;-88
2021/10/18 12:01:03;;;;;;;5.80;3.40;;;;;;;23.02;29.57;100338.09;5040482;28;20215;-85
2021/10/18 12:03:32;;;;;;;3.90;2.77;;;;;;;22.64;29.43;100331.47;5057099;28;20234;-84
2021/10/18 12:06:02;;;;;;;3.83;3.10;;;;;;;22.20;30.29;100323.25;5023734;28;20228;-82
2021/10/18 12:08:34;;;;;;;6.60;3.30;;;;;;;23.35;29.59;100330.16;5039961;28;20284;-86
2021/10/18 12:11:03;;;;;;;3.40;3.10;;;;;;;23.34;28.65;100320.31;5024332;28;20227;-87
2021/10/18 12:13:31;;;;;;;5.20;3.03;;;;;;;23.90;28.48;100315.97;5023244;28;20240;-89
2021/10/18 12:16:05;;;;;;;4.83;3.20;;;;;;;24.30;27.52;100322.91;5023550;28;20357;-83
2021/10/18 12:18:42;;;;;;;6.07;2.70;;;;;;;23.92;27.49;100316.50;5057375;28;20628;-88
2021/10/18 12:21:11;;;;;;;4.23;2.70;;;;;;;23.98;27.28;100314.53;5057292;28;20233;-88
2021/10/18 12:23:47;;;;;;;3.07;2.50;;;;;;;23.60;27.39;100313.56;5023435;28;20225;-81
2021/10/18 12:26:19;;;;;;;6.00;2.80;;;;;;;22.92;27.93;100321.75;5039421;28;20256;-87
2021/10/18 12:28:51;;;;;;;3.63;2.27;;;;;;;24.34;26.50;100318.47;5058759;28;20231;-87
2021/10/18 12:31:27;;;;;;;4.27;2.70;;;;;;;24.22;26.76;100328.19;5019114;28;20568;-86
2021/10/18 12:34:23;;;;;;;3.53;2.80;;;;;;;23.66;27.60;100324.16;5040137;28;20235;-85
2021/10/18 12:37:05;;;;;;;3.53;2.60;;;;;;;23.07;26.94;100316.19;5039557;28;20240;-86
2021/10/18 12:39:35;;;;;;;3.47;2.53;;;;;;;24.05;26.14;100315.78;5056286;28;20286;-81
2021/10/18 12:42:03;;;;;;;2.97;2.30;;;;;;;22.95;27.46;100318.47;5039206;28;20684;-81
2021/10/18 12:44:42;;;;;;;3.37;2.50;;;;;;;23.00;27.37;100323.09;5056527;28;20312;-80
2021/10/18 12:47:20;;;;;;;5.73;2.30;;;;;;;22.96;28.14;100314.63;5040079;28;20635;-81
2021/10/18 12:49:52;;;;;;;2.83;1.90;;;;;;;22.32;29.11;100311.97;5053647;28;20318;-89
2021/10/18 12:52:29;;;;;;;4.47;2.07;;;;;;;22.28;28.94;100319.91;5043505;28;20577;-90
2021/10/18 12:54:56;;;;;;;3.07;1.70;;;;;;;21.52;28.84;100311.09;5042800;28;20276;-85
2021/10/18 12:57:25;;;;;;;2.70;1.83;;;;;;;23.01;27.71;100314.56;5047709;28;20231;-83
2021/10/18 13:00:14;;;;;;;4.47;1.70;;;;;;;22.59;28.21;100309.66;5043237;28;20231;-88
2021/10/18 13:02:46;;;;;;;2.73;1.90;;;;;;;22.55;27.72;100315.94;5042784;28;20221;-79
2021/10/18 13:05:16;;;;;;;3.17;2.03;;;;;;;22.83;28.05;100313.34;5060167;28;20237;-87
2021/10/18 13:08:00;;;;;;;2.73;1.77;;;;;;;22.78;27.49;100309.81;5059401;28;20241;-86
2021/10/18 13:10:32;;;;;;;3.50;1.83;;;;;;;22.89;27.64;100313.31;5042679;28;20233;-86
2021/10/18 13:13:02;;;;;;;2.33;1.60;;;;;;;23.25;27.56;100310.00;5042938;28;20238;-87
2021/10/18 13:15:29;;;;;;;3.67;1.57;;;;;;;23.23;26.69;100308.69;5059339;28;20227;-85
2021/10/18 13:17:56;;;;;;;3.67;1.80;;;;;;;24.18;26.42;100310.72;5059347;28;20315;-87
2021/10/18 13:20:25;;;;;;;4.10;1.90;;;;;;;23.69;26.73;100312.63;5076107;28;20524;-88
2021/10/18 13:22:56;;;;;;;2.27;1.57;;;;;;;23.47;27.94;100311.50;5059173;28;20232;-87
2021/10/18 13:25:25;;;;;;;4.47;1.67;;;;;;;22.73;28.07;100301.66;5059273;28;20226;-90
2021/10/18 13:27:53;;;;;;;1.57;1.30;;;;;;;23.23;26.57;100306.78;5059527;28;20235;-85
2021/10/18 13:30:20;;;;;;;2.23;1.40;;;;;;;22.59;28.10;100323.28;5058086;28;20239;-87
2021/10/18 13:32:49;;;;;;;5.10;1.80;;;;;;;23.48;27.60;100311.19;5042617;28;20226;-84
2021/10/18 13:35:16;;;;;;;2.77;1.73;;;;;;;22.82;27.68;100317.16;5042101;28;20228;-84
2021/10/18 13:37:44;;;;;;;3.77;1.80;;;;;;;22.59;27.60;100323.28;5042226;28;20228;-88
2021/10/18 13:40:11;;;;;;;3.40;2.00;;;;;;;23.06;27.42;100324.66;5041601;28;20520;-89
2021/10/18 13:42:39;;;;;;;2.53;1.40;;;;;;;23.60;26.97;100314.38;5042413;28;20227;-87
2021/10/18 13:45:07;;;;;;;3.03;1.53;;;;;;;23.40;27.54;100328.19;5042215;28;20232;-87